Time;durP1;ratioP1;P1;durP2;ratioP2;P2;SDS_P1;SDS_P2;PMS_P1;PMS_P2;Temp;Humidity;BMP_temperature;BMP_pressure;BME280_temperature;BME280_humidity;BME280_pressure;Samples;Min_cycle;Max_cycle;Signal;HPM_P1;HPM_P2
2022/11/16 00:08:44;;;;;;;11.68;8.57;;;;;;;21.33;59.12;99694.97;20684687;28;20050;-76
2022/11/16 00:18:44;;;;;;;12.02;8.82;;;;;;;21.28;58.87;99690.94;20681149;28;20126;-75
2022/11/16 00:28:45;;;;;;;13.35;8.90;;;;;;;21.28;58.98;99688.28;20685809;28;20038;-76
2022/11/16 00:38:45;;;;;;;13.38;8.93;;;;;;;21.30;58.93;99668.91;20677732;28;20243;-76
2022/11/16 00:48:45;;;;;;;12.20;8.48;;;;;;;21.26;59.27;99642.00;20676569;28;20137;-75
2022/11/16 00:58:46;;;;;;;14.88;8.73;;;;;;;21.27;59.02;99641.03;20682695;28;20042;-75
2022/11/16 01:08:46;;;;;;;13.32;9.20;;;;;;;21.25;58.96;99627.19;20667330;28;20452;-75
2022/11/16 01:18:49;;;;;;;12.02;8.60;;;;;;;21.25;59.11;99606.13;20675630;28;20042;-75
2022/11/16 01:28:49;;;;;;;12.85;8.90;;;;;;;21.24;59.15;99600.03;20672701;28;20529;-75
2022/11/16 01:38:50;;;;;;;14.75;8.73;;;;;;;21.23;59.09;99592.28;20679441;28;20038;-76
2022/11/16 01:48:58;;;;;;;12.60;8.55;;;;;;;21.25;59.33;99562.19;20663091;28;20042;-75
2022/11/16 01:58:59;;;;;;;12.60;8.25;;;;;;;21.23;59.00;99555.41;20674872;28;20053;-75
2022/11/16 02:19:20;;;;;;;12.07;8.27;;;;;;;21.21;59.26;99542.38;20667282;28;20061;-76
2022/11/16 02:29:39;;;;;;;;;;;;;;;21.22;59.14;99524.78;20667172;28;20048;-76
2022/11/16 02:39:44;;;;;;;13.02;8.77;;;;;;;21.21;59.32;99517.84;20659149;28;19948;-75
2022/11/16 02:49:50;;;;;;;11.73;8.13;;;;;;;21.20;59.38;99503.03;20658426;28;20045;-75
2022/11/16 02:59:56;;;;;;;12.55;8.60;;;;;;;21.18;59.08;99487.38;20663737;28;20038;-75
2022/11/16 03:09:56;;;;;;;13.10;8.85;;;;;;;21.18;59.25;99484.75;20660343;28;20046;-75
2022/11/16 03:20:03;;;;;;;13.55;8.43;;;;;;;21.17;59.44;99474.38;20667021;28;20049;-75
2022/11/16 03:30:07;;;;;;;12.30;8.10;;;;;;;21.14;59.23;99474.63;20667531;28;20045;-75
2022/11/16 03:40:17;;;;;;;11.55;8.13;;;;;;;21.08;59.25;99455.81;20685835;28;20047;-76
2022/11/16 03:50:17;;;;;;;11.18;7.95;;;;;;;21.07;59.54;99450.69;20670473;28;20481;-75
2022/11/16 04:00:19;;;;;;;11.07;7.82;;;;;;;21.10;59.18;99431.97;20674407;28;20057;-76
2022/11/16 04:51:38;;;;;;;10.95;7.32;;;;;;;21.05;59.58;99398.16;20682560;28;20489;-75
2022/11/16 05:11:57;;;;;;;12.38;8.30;;;;;;;21.03;59.47;99394.03;20664797;28;20037;-76
2022/11/16 05:21:57;;;;;;;13.18;8.15;;;;;;;21.06;59.64;99381.41;20669034;28;20544;-77
2022/11/16 05:31:58;;;;;;;11.35;8.13;;;;;;;21.21;60.86;99375.69;20677905;28;20456;-78
2022/11/16 05:41:59;;;;;;;19.55;8.70;;;;;;;21.32;60.74;99359.69;20699404;28;20046;-77
2022/11/16 05:52:00;;;;;;;14.07;8.18;;;;;;;21.42;60.47;99343.88;20658841;28;20059;-74
2022/11/16 06:02:02;;;;;;;17.40;8.32;;;;;;;21.52;60.37;99334.13;20666181;28;20069;-75
2022/11/16 06:12:03;;;;;;;18.30;9.75;;;;;;;21.50;58.80;99333.44;20678777;28;20031;-75
2022/11/16 06:22:05;;;;;;;24.90;11.98;;;;;;;21.52;57.73;99341.19;20651787;28;20050;-75
2022/11/16 06:32:05;;;;;;;17.13;10.53;;;;;;;21.54;58.79;99342.69;20661948;28;20026;-74
2022/11/16 06:42:06;;;;;;;17.23;10.88;;;;;;;21.55;58.75;99338.25;20673011;28;20096;-75
2022/11/16 06:52:06;;;;;;;16.70;10.23;;;;;;;21.58;58.63;99320.41;20650484;28;20378;-76
2022/11/16 07:02:09;;;;;;;16.45;9.65;;;;;;;21.62;59.04;99309.53;20662600;28;20050;-75
2022/11/16 07:12:09;;;;;;;16.45;10.13;;;;;;;21.68;59.18;99307.16;20663985;28;20103;-75
2022/11/16 07:22:10;;;;;;;15.43;9.50;;;;;;;21.77;59.51;99299.34;20665564;28;20566;-75
2022/11/16 07:32:10;;;;;;;16.23;9.63;;;;;;;21.79;59.39;99289.47;20657478;28;20132;-76
2022/11/16 07:42:11;;;;;;;17.20;9.20;;;;;;;21.77;58.85;99280.91;20682530;28;20413;-76
2022/11/16 07:52:12;;;;;;;16.58;9.73;;;;;;;21.78;58.74;99283.38;20684137;28;20038;-75
2022/11/16 08:02:13;;;;;;;15.10;9.18;;;;;;;21.85;59.38;99275.69;20678742;28;20105;-72
2022/11/16 08:12:13;;;;;;;15.93;9.13;;;;;;;21.80;58.16;99268.25;20680603;28;20046;-73
2022/11/16 08:22:13;;;;;;;17.60;10.07;;;;;;;21.82;58.18;99265.47;20677283;28;20046;-73
2022/11/16 08:32:14;;;;;;;18.88;9.98;;;;;;;21.81;57.86;99258.53;20691694;28;20048;-74
2022/11/16 08:42:14;;;;;;;16.48;9.38;;;;;;;21.82;57.66;99270.75;20671108;28;20412;-74
2022/11/16 08:52:14;;;;;;;14.70;9.50;;;;;;;21.80;57.36;99256.88;20670396;28;20065;-73
2022/11/16 09:02:15;;;;;;;15.30;9.50;;;;;;;21.80;57.47;99255.09;20690405;28;20049;-73
2022/11/16 09:12:16;;;;;;;14.00;8.75;;;;;;;21.81;57.53;99245.38;20672575;28;20085;-75
2022/11/16 09:22:16;;;;;;;15.65;9.55;;;;;;;21.83;57.92;99246.06;20650049;28;20074;-74
2022/11/16 09:32:17;;;;;;;17.05;10.20;;;;;;;21.82;57.71;99249.66;20651985;28;20057;-74
2022/11/16 09:42:20;;;;;;;18.90;12.50;;;;;;;21.78;57.65;99228.06;20684056;28;20506;-74
2022/11/16 09:52:30;;;;;;;17.02;11.80;;;;;;;21.79;57.29;99199.88;20695046;28;20042;-74
2022/11/16 10:02:41;;;;;;;20.08;12.38;;;;;;;21.82;57.43;99210.13;20681283;28;20050;-74
2022/11/16 10:13:34;;;;;;;17.27;11.75;;;;;;;21.88;57.23;99176.06;20684421;28;20044;-74
2022/11/16 10:24:14;;;;;;;18.15;12.07;;;;;;;21.91;57.01;99173.16;20646712;28;20085;-73
2022/11/16 10:34:21;;;;;;;17.95;12.10;;;;;;;21.90;56.60;99158.31;20678354;28;20069;-74
2022/11/16 10:44:38;;;;;;;17.60;10.93;;;;;;;21.90;56.75;99149.59;20668886;28;20065;-76
2022/11/16 10:54:39;;;;;;;14.38;9.73;;;;;;;21.92;56.72;99134.44;20674459;28;20100;-75
2022/11/16 11:04:39;;;;;;;14.63;9.80;;;;;;;21.91;56.33;99119.63;20681219;28;20050;-74
2022/11/16 11:14:39;;;;;;;16.58;10.70;;;;;;;21.91;56.37;99099.34;20669915;28;20042;-74
2022/11/16 11:24:47;;;;;;;15.05;9.50;;;;;;;21.90;56.43;99087.16;20701230;28;20072;-74
2022/11/16 11:34:52;;;;;;;14.48;9.82;;;;;;;21.86;56.68;99075.28;20662208;28;20462;-73
2022/11/16 11:44:59;;;;;;;17.20;10.68;;;;;;;21.92;57.42;99068.56;20685917;28;20058;-75
2022/11/16 11:55:02;;;;;;;23.45;14.35;;;;;;;21.98;60.35;99046.84;20683311;28;20038;-74
2022/11/16 12:05:02;;;;;;;;;;;;;;;22.02;62.23;99053.47;20647970;28;20461;-74
2022/11/16 12:15:15;;;;;;;21.00;14.25;;;;;;;22.00;60.68;99047.50;20621340;28;20043;-75
2022/11/16 12:25:34;;;;;;;18.58;13.23;;;;;;;21.94;60.00;99048.16;20665708;28;20091;-75
2022/11/16 12:35:49;;;;;;;20.83;13.65;;;;;;;21.87;59.41;99042.69;20688243;28;20523;-75
2022/11/16 12:46:06;;;;;;;18.27;12.30;;;;;;;21.83;59.22;99030.78;20666707;28;20088;-75
2022/11/16 12:56:28;;;;;;;16.45;11.95;;;;;;;21.80;59.01;99017.94;20686489;28;21259;-74
2022/11/16 13:06:34;;;;;;;17.80;11.18;;;;;;;21.86;58.13;99011.19;20613294;28;20498;-74
2022/11/16 13:16:35;;;;;;;14.98;10.18;;;;;;;21.86;57.97;99016.47;20595553;28;20176;-73
2022/11/16 13:26:43;;;;;;;15.10;9.95;;;;;;;21.87;57.73;99013.69;20648354;28;20405;-73
2022/11/16 13:36:45;;;;;;;18.27;11.07;;;;;;;21.83;58.25;99006.25;20644017;28;20056;-74
2022/11/16 13:46:58;;;;;;;14.57;9.97;;;;;;;21.81;57.90;99010.84;20661928;28;20046;-71
2022/11/16 13:57:01;;;;;;;18.13;11.07;;;;;;;21.70;57.67;98996.13;20662712;28;20046;-72
2022/11/16 14:07:01;;;;;;;16.08;10.45;;;;;;;21.68;57.89;98991.03;20666082;28;20046;-74
2022/11/16 14:17:02;;;;;;;18.60;10.60;;;;;;;21.69;57.95;98986.56;20684247;28;20038;-75
2022/11/16 14:27:05;;;;;;;15.73;9.57;;;;;;;21.66;57.97;98976.38;20672539;28;20050;-74
2022/11/16 14:37:13;;;;;;;12.55;9.07;;;;;;;21.67;58.15;98972.75;20678303;28;20129;-75
2022/11/16 14:47:27;;;;;;;16.98;9.63;;;;;;;21.65;58.30;98972.88;20670220;28;20053;-75
2022/11/16 14:57:27;;;;;;;14.18;9.50;;;;;;;21.68;58.53;98966.47;20644722;28;20117;-78
2022/11/16 15:07:30;;;;;;;18.15;9.32;;;;;;;21.67;58.36;98960.38;20682207;28;20046;-76
2022/11/16 15:17:32;;;;;;;14.68;8.55;;;;;;;21.65;58.54;98957.09;20673138;28;20049;-77
2022/11/16 15:27:36;;;;;;;15.90;9.48;;;;;;;21.63;57.47;98945.06;20664405;28;21415;-78
2022/11/16 15:37:36;;;;;;;17.30;9.82;;;;;;;21.64;57.53;98941.44;20648789;28;20074;-78
2022/11/16 15:47:37;;;;;;;16.13;9.05;;;;;;;21.60;58.53;98943.56;20672850;28;20044;-77
2022/11/16 15:57:37;;;;;;;13.80;8.27;;;;;;;21.59;58.80;98942.75;20670493;28;20078;-78
2022/11/16 16:07:41;;;;;;;13.32;7.85;;;;;;;21.57;57.87;98931.53;20669387;28;20050;-77
2022/11/16 16:17:45;;;;;;;14.25;8.20;;;;;;;21.57;57.90;98926.25;20679764;28;20118;-77
2022/11/16 16:27:45;;;;;;;12.23;7.85;;;;;;;21.57;57.80;98931.53;20678340;28;20058;-77
2022/11/16 16:37:50;;;;;;;12.07;7.90;;;;;;;21.59;57.79;98937.47;20683599;28;20041;-77
2022/11/16 16:47:51;;;;;;;11.38;7.22;;;;;;;21.59;57.79;98920.84;20678972;28;20042;-76
2022/11/16 16:57:55;;;;;;;15.25;7.68;;;;;;;21.56;57.60;98924.59;20676404;28;20034;-76
2022/11/16 17:07:55;;;;;;;13.18;7.80;;;;;;;21.54;57.88;98925.72;20633074;28;20544;-76
2022/11/16 17:17:57;;;;;;;11.07;7.43;;;;;;;21.47;58.00;98909.72;20657021;28;20065;-75
2022/11/16 17:27:58;;;;;;;14.73;7.93;;;;;;;21.49;58.11;98912.19;20672762;28;20047;-77
2022/11/16 17:37:58;;;;;;;10.00;7.05;;;;;;;21.50;58.38;98904.13;20658960;28;20052;-77
2022/11/16 17:47:59;;;;;;;16.13;7.53;;;;;;;21.48;58.70;98902.66;20644032;28;20042;-77
2022/11/16 17:57:59;;;;;;;10.82;6.95;;;;;;;21.56;59.40;98897.44;20658021;28;20081;-77
2022/11/16 18:07:59;;;;;;;16.35;7.38;;;;;;;21.58;59.85;98893.69;20643499;28;20424;-77
2022/11/16 18:18:01;;;;;;;39.45;12.55;;;;;;;21.59;60.09;98894.50;20657641;28;20046;-77
2022/11/16 18:28:01;;;;;;;27.65;11.75;;;;;;;21.61;59.57;98881.19;20654286;28;20408;-78
2022/11/16 18:38:02;;;;;;;26.55;10.63;;;;;;;21.59;59.62;98886.59;20663394;28;20042;-79
2022/11/16 18:48:03;;;;;;;20.02;8.82;;;;;;;21.58;59.92;98887.56;20680647;28;20504;-78
2022/11/16 18:58:04;;;;;;;20.38;9.07;;;;;;;21.58;59.54;98888.41;20686138;28;20174;-78
2022/11/16 19:08:05;;;;;;;21.55;9.68;;;;;;;21.54;59.81;98884.38;20662333;28;20393;-79
2022/11/16 19:18:05;;;;;;;20.80;8.98;;;;;;;21.56;59.59;98881.63;20672975;28;20046;-79
2022/11/16 19:28:05;;;;;;;21.60;9.45;;;;;;;21.54;59.75;98879.13;20633039;28;20088;-79
2022/11/16 19:38:06;;;;;;;16.83;8.05;;;;;;;21.53;59.37;98872.22;20681720;28;20088;-79
2022/11/16 19:48:06;;;;;;;16.50;8.35;;;;;;;21.51;59.51;98858.38;20685988;28;20180;-78
2022/11/16 19:58:07;;;;;;;15.70;8.10;;;;;;;21.49;59.53;98862.16;20695937;28;20042;-80
2022/11/16 20:08:09;;;;;;;18.98;7.97;;;;;;;21.47;59.44;98859.69;20695464;28;20042;-79
2022/11/16 20:18:10;;;;;;;20.73;7.60;;;;;;;21.49;59.39;98868.25;20690836;28;20060;-83
2022/11/16 20:28:10;;;;;;;15.40;7.38;;;;;;;21.50;59.78;98866.44;20689970;28;20399;-82
2022/11/16 20:38:11;;;;;;;18.75;7.30;;;;;;;21.45;58.62;98861.66;20665551;28;20042;-77
2022/11/16 20:48:12;;;;;;;12.75;6.90;;;;;;;21.36;59.05;98842.38;20718105;28;20125;-76
2022/11/16 20:58:13;;;;;;;14.35;7.07;;;;;;;21.34;59.42;98844.31;20711129;28;20046;-77
2022/11/16 21:08:13;;;;;;;13.25;7.03;;;;;;;21.32;59.50;98859.44;20694626;28;20057;-77
2022/11/16 21:18:14;;;;;;;12.00;6.53;;;;;;;21.30;59.48;98850.06;20683958;28;20449;-77
2022/11/16 21:28:15;;;;;;;13.20;7.00;;;;;;;21.28;59.75;98839.69;20704861;28;20049;-77
2022/11/16 21:38:16;;;;;;;12.02;6.50;;;;;;;21.25;59.62;98830.31;20744247;28;20034;-78
2022/11/16 21:48:22;;;;;;;12.25;6.78;;;;;;;21.25;59.57;98821.56;20805661;28;20065;-77
2022/11/16 21:58:24;;;;;;;12.82;6.80;;;;;;;21.22;59.55;98793.75;20733336;28;20049;-77
2022/11/16 22:08:24;;;;;;;11.47;6.57;;;;;;;21.23;59.50;98797.22;20699880;28;20049;-77
2022/11/16 22:18:25;;;;;;;9.68;6.15;;;;;;;21.23;59.51;98794.59;20686982;28;20035;-77
2022/11/16 22:28:25;;;;;;;11.20;6.93;;;;;;;21.21;59.25;98804.44;20674786;28;20125;-77
2022/11/16 22:38:28;;;;;;;10.05;6.15;;;;;;;21.19;59.59;98815.13;20688494;28;20064;-78
2022/11/16 22:48:29;;;;;;;12.93;5.97;;;;;;;21.20;60.07;98815.94;20688802;28;20332;-78
2022/11/16 22:58:29;;;;;;;11.10;6.60;;;;;;;21.22;59.90;98811.38;20681555;28;20099;-77
2022/11/16 23:08:30;;;;;;;9.52;5.97;;;;;;;21.22;60.25;98808.72;20686798;28;20046;-76
2022/11/16 23:18:32;;;;;;;9.32;5.70;;;;;;;21.22;60.31;98796.38;20688310;28;20030;-77
2022/11/16 23:28:33;;;;;;;9.13;5.90;;;;;;;21.23;60.17;98798.03;20689371;28;20054;-77
2022/11/16 23:38:33;;;;;;;9.85;6.22;;;;;;;21.21;60.05;98791.28;20692021;28;20129;-77
2022/11/16 23:48:34;;;;;;;10.55;6.43;;;;;;;21.19;60.34;98799.34;20696287;28;20064;-77
2022/11/16 23:58:34;;;;;;;9.02;5.88;;;;;;;21.17;60.46;98798.66;20701724;28;20034;-77
